Information Last Ob Photographs Calibration Meteogram Network Table Neighbors Monthly Summaries Observation History Wind Roses Custom Wind Roses Data Calendar Satellite Cloud Product Download

Most Recent Observation

This application displays the last observation received by the IEM from this site. The time stamp is in America/Chicago timezone.

Observation Local Time26 Mar 2024, 1:55 PM
Observation UTC Time2024-03-26T18:55:00Z
Air Temp [F]27.3
Maximum Air Temperature [F]32
Minimum Air Temperature [F]23.5
Dew Point [F]21.2
Wind DirectionWNW (300 degrees)
Wind Speed [knots]14
Altimeter [inches]29.70
Raw Observation/ProductKCKP 261855Z AUTO 30014G26KT 10SM OVC021 M03/M06 A2970 RMK AO2 T10261060
Cloud Layer 1: OVC (2100 feet)

This data was provided by a JSON(P) webservice. You can find more JSON services.